createdAt,value
2017-08-13T00:00:43.785Z,79.09
2017-08-13T00:01:45.659Z,79.38
2017-08-13T00:02:47.548Z,79.67
2017-08-13T00:04:01.750Z,79.47
2017-08-13T00:05:03.627Z,79.67
2017-08-13T00:06:05.528Z,79.57
2017-08-13T00:07:07.406Z,80.15
2017-08-13T00:08:09.239Z,80.24
2017-08-13T00:09:11.058Z,80.43
2017-08-13T00:10:12.937Z,80.63
2017-08-13T00:11:14.817Z,81.07
2017-08-13T00:12:16.705Z,80.87
2017-08-13T00:13:30.868Z,81.01
2017-08-13T00:14:32.745Z,81.20
2017-08-13T00:15:34.629Z,81.01
2017-08-13T00:16:36.507Z,80.91
2017-08-13T00:17:38.339Z,81.40
2017-08-13T00:18:40.159Z,81.35
2017-08-13T00:19:42.037Z,81.54
2017-08-13T00:20:43.926Z,81.49
2017-08-13T00:21:45.806Z,81.26
2017-08-13T00:23:00.009Z,81.64
2017-08-13T00:24:01.888Z,82.03
2017-08-13T00:25:03.777Z,82.03
2017-08-13T00:26:05.657Z,82.60
2017-08-13T00:27:07.474Z,82.70
2017-08-13T00:28:09.305Z,83.27
2017-08-13T00:29:11.196Z,83.08
2017-08-13T00:30:13.074Z,83.27
2017-08-13T00:31:14.962Z,83.08
2017-08-13T00:32:29.115Z,82.70
2017-08-13T00:33:31.004Z,82.51
2017-08-13T00:34:32.886Z,82.51
2017-08-13T00:35:34.764Z,82.31
2017-08-13T00:36:36.596Z,82.21
2017-08-13T00:37:38.419Z,82.12
2017-08-13T00:38:40.307Z,81.87
2017-08-13T00:39:42.185Z,81.40
2017-08-13T00:40:44.075Z,81.30
2017-08-13T00:41:58.228Z,81.01
2017-08-13T00:43:00.110Z,81.10
2017-08-13T00:44:01.989Z,80.47
2017-08-13T00:45:03.878Z,80.28
2017-08-13T00:46:05.700Z,80.19
2017-08-13T00:47:07.522Z,80.28
2017-08-13T00:48:09.398Z,79.61
2017-08-13T00:49:11.285Z,79.61
2017-08-13T00:50:13.158Z,79.42
2017-08-13T00:51:27.311Z,79.03
2017-08-13T00:52:29.188Z,79.03
2017-08-13T00:53:31.069Z,78.45
2017-08-13T00:54:32.960Z,78.55
2017-08-13T00:55:34.778Z,78.75
2017-08-13T00:56:36.600Z,78.59
2017-08-13T00:57:38.475Z,78.98
2017-08-13T00:58:40.368Z,78.88
2017-08-13T00:59:42.250Z,78.88
2017-08-13T01:00:56.397Z,78.50
2017-08-13T01:01:58.280Z,78.55
2017-08-13T01:03:00.167Z,78.78
2017-08-13T01:04:02.046Z,78.40
2017-08-13T01:05:03.865Z,78.40
2017-08-13T01:06:05.688Z,78.21
2017-08-13T01:07:07.567Z,78.21
2017-08-13T01:08:09.457Z,77.63
2017-08-13T01:09:11.336Z,77.53
2017-08-13T01:10:25.490Z,77.83
2017-08-13T01:11:27.380Z,78.02
2017-08-13T01:12:29.288Z,78.08
2017-08-13T01:13:31.155Z,78.02
2017-08-13T01:14:32.986Z,78.30
2017-08-13T01:15:34.818Z,78.30
2017-08-13T01:16:36.695Z,78.30
2017-08-13T01:17:38.576Z,78.17
2017-08-13T01:18:40.465Z,78.08
2017-08-13T01:19:54.627Z,78.45
2017-08-13T01:20:56.518Z,78.45
2017-08-13T01:21:58.401Z,78.27
2017-08-13T01:23:00.300Z,78.75
2017-08-13T01:24:02.117Z,78.65
2017-08-13T01:25:03.933Z,78.65
2017-08-13T01:26:05.818Z,78.94
2017-08-13T01:27:07.697Z,79.03
2017-08-13T01:28:09.576Z,79.03
2017-08-13T01:29:23.729Z,79.71
2017-08-13T01:30:25.616Z,79.71
2017-08-13T01:31:27.507Z,79.42
2017-08-13T01:32:29.385Z,79.52
2017-08-13T01:33:31.216Z,79.42
2017-08-13T01:34:33.035Z,79.42
2017-08-13T01:35:34.925Z,79.52
2017-08-13T01:36:36.805Z,79.52
2017-08-13T01:37:38.684Z,79.61
2017-08-13T01:38:52.898Z,79.52
2017-08-13T01:39:54.787Z,79.61
2017-08-13T01:40:56.679Z,79.52
2017-08-13T01:41:58.559Z,79.52
2017-08-13T01:43:00.376Z,79.32
2017-08-13T01:44:02.197Z,79.42
2017-08-13T01:45:04.075Z,79.32
2017-08-13T01:46:05.964Z,79.36
2017-08-13T01:47:07.864Z,78.88
2017-08-13T01:48:22.022Z,78.50
2017-08-13T01:49:23.914Z,78.88
2017-08-13T01:50:25.799Z,78.50
2017-08-13T01:51:27.681Z,78.11
2017-08-13T01:52:29.503Z,78.21
2017-08-13T01:53:31.324Z,78.21
2017-08-13T01:54:33.210Z,78.21
2017-08-13T01:55:35.092Z,78.30
2017-08-13T01:56:36.975Z,77.73
2017-08-13T01:57:51.136Z,76.96
2017-08-13T01:58:53.028Z,77.15
2017-08-13T01:59:54.913Z,77.06
2017-08-13T02:00:56.796Z,76.67
2017-08-13T02:01:58.617Z,76.00
2017-08-13T02:03:00.449Z,76.67
2017-08-13T02:04:02.343Z,76.29
2017-08-13T02:05:04.225Z,75.90
2017-08-13T02:06:06.109Z,76.77
2017-08-13T02:07:20.271Z,76.00
2017-08-13T02:08:22.153Z,76.29
2017-08-13T02:09:24.040Z,76.00
2017-08-13T02:10:25.922Z,76.19
2017-08-13T02:11:27.741Z,76.19
2017-08-13T02:12:29.564Z,76.39
2017-08-13T02:13:31.445Z,75.71
2017-08-13T02:14:33.328Z,75.90
2017-08-13T02:15:35.214Z,75.90
2017-08-13T02:16:49.375Z,76.00
2017-08-13T02:17:51.256Z,76.00
2017-08-13T02:18:53.143Z,75.56
2017-08-13T02:19:55.036Z,75.65
2017-08-13T02:20:56.863Z,75.75
2017-08-13T02:21:58.682Z,75.13
2017-08-13T02:23:00.578Z,74.94
2017-08-13T02:24:02.461Z,75.17
2017-08-13T02:25:04.345Z,74.88
2017-08-13T02:26:18.506Z,75.17
2017-08-13T02:27:20.389Z,75.13
2017-08-13T02:28:22.273Z,74.85
2017-08-13T02:29:24.167Z,75.32
2017-08-13T02:30:25.991Z,75.17
2017-08-13T02:31:27.815Z,75.42
2017-08-13T02:32:29.700Z,75.62
2017-08-13T02:33:31.582Z,75.62
2017-08-13T02:34:33.468Z,75.42
2017-08-13T02:35:47.681Z,75.42
2017-08-13T02:36:49.566Z,75.23
2017-08-13T02:37:51.451Z,75.32
2017-08-13T02:38:53.344Z,74.85
2017-08-13T02:39:55.165Z,75.13
2017-08-13T02:40:56.997Z,75.23
2017-08-13T02:41:58.879Z,75.42
2017-08-13T02:43:00.761Z,75.13
2017-08-13T02:44:02.654Z,74.85
2017-08-13T02:45:16.814Z,75.04
2017-08-13T02:46:18.695Z,74.85
2017-08-13T02:47:20.585Z,74.65
2017-08-13T02:48:22.466Z,74.75
2017-08-13T02:49:24.289Z,74.85
2017-08-13T02:50:26.110Z,74.85
2017-08-13T02:51:27.993Z,74.94
2017-08-13T02:52:29.887Z,75.13
2017-08-13T02:53:31.776Z,74.75
2017-08-13T02:54:45.982Z,74.85
2017-08-13T02:55:47.864Z,74.69
2017-08-13T02:56:49.747Z,74.98
2017-08-13T02:57:51.641Z,75.27
2017-08-13T02:58:53.465Z,75.07
2017-08-13T02:59:55.297Z,74.88
2017-08-13T03:00:57.192Z,74.75
2017-08-13T03:01:59.075Z,75.04
2017-08-13T03:03:00.958Z,75.13
2017-08-13T03:04:15.121Z,75.52
2017-08-13T03:05:17.005Z,74.65
2017-08-13T03:06:18.893Z,74.65
2017-08-13T03:07:20.780Z,75.32
2017-08-13T03:08:22.603Z,75.23
2017-08-13T03:09:24.423Z,74.94
2017-08-13T03:10:26.317Z,75.52
2017-08-13T03:11:28.197Z,75.52
2017-08-13T03:12:30.080Z,75.81
2017-08-13T03:13:44.253Z,75.52
2017-08-13T03:14:46.136Z,75.81
2017-08-13T03:15:48.020Z,76.29
2017-08-13T03:16:49.903Z,76.00
2017-08-13T03:17:51.724Z,75.90
2017-08-13T03:18:53.547Z,76.67
2017-08-13T03:19:55.434Z,76.09
2017-08-13T03:20:57.312Z,77.15
2017-08-13T03:21:59.212Z,76.77
2017-08-13T03:23:13.359Z,76.96
2017-08-13T03:24:15.251Z,77.11
2017-08-13T03:25:17.147Z,76.86
2017-08-13T03:26:19.032Z,76.92
2017-08-13T03:27:20.853Z,77.21
2017-08-13T03:28:22.687Z,77.31
2017-08-13T03:29:24.570Z,77.34
2017-08-13T03:30:26.466Z,77.15
2017-08-13T03:31:28.349Z,77.40
2017-08-13T03:32:42.512Z,77.34
2017-08-13T03:33:44.405Z,77.15
2017-08-13T03:34:46.289Z,77.53
2017-08-13T03:35:48.189Z,77.78
2017-08-13T03:36:50.012Z,77.78
2017-08-13T03:37:51.847Z,77.78
2017-08-13T03:38:53.729Z,77.98
2017-08-13T03:39:55.622Z,78.27
2017-08-13T03:40:57.509Z,78.45
2017-08-13T03:42:11.668Z,78.17
2017-08-13T03:43:13.561Z,78.55
2017-08-13T03:44:15.444Z,78.84
2017-08-13T03:45:17.327Z,78.94
2017-08-13T03:46:19.151Z,78.75
2017-08-13T03:47:20.983Z,78.65
2017-08-13T03:48:22.880Z,78.45
2017-08-13T03:49:24.765Z,78.55
2017-08-13T03:50:26.660Z,78.55
2017-08-13T03:51:40.824Z,78.55
2017-08-13T03:52:42.705Z,78.55
2017-08-13T03:53:44.607Z,78.55
2017-08-13T03:54:46.486Z,78.55
2017-08-13T03:55:48.320Z,78.55
2017-08-13T03:56:50.153Z,78.55
2017-08-13T03:57:52.038Z,78.59
2017-08-13T03:58:53.928Z,78.50
2017-08-13T03:59:55.806Z,78.50
2017-08-13T04:01:10.021Z,78.98
2017-08-13T04:02:11.903Z,78.88
2017-08-13T04:03:13.789Z,78.88
2017-08-13T04:04:15.674Z,78.88
2017-08-13T04:05:17.510Z,78.69
2017-08-13T04:06:19.333Z,78.69
2017-08-13T04:07:21.229Z,78.59
2017-08-13T04:08:23.128Z,78.69
2017-08-13T04:09:25.015Z,79.07
2017-08-13T04:10:39.180Z,79.27
2017-08-13T04:11:41.066Z,78.78
2017-08-13T04:12:42.956Z,78.78
2017-08-13T04:13:44.845Z,78.25
2017-08-13T04:14:46.673Z,77.09
2017-08-13T04:15:48.495Z,76.46
2017-08-13T04:16:50.401Z,76.36
2017-08-13T04:17:52.283Z,75.88
2017-08-13T04:18:54.171Z,75.73
2017-08-13T04:20:08.336Z,74.38
2017-08-13T04:21:10.223Z,74.09
2017-08-13T04:22:12.119Z,73.80
2017-08-13T04:23:14.002Z,73.36
2017-08-13T04:24:15.827Z,73.26
2017-08-13T04:25:17.661Z,72.88
2017-08-13T04:26:19.555Z,73.07
2017-08-13T04:27:21.438Z,72.59
2017-08-13T04:28:23.328Z,73.03
2017-08-13T04:29:37.493Z,73.03
2017-08-13T04:30:39.379Z,73.99
2017-08-13T04:31:41.269Z,74.25
2017-08-13T04:32:43.158Z,74.92
2017-08-13T04:33:44.986Z,75.11
2017-08-13T04:34:46.817Z,74.63
2017-08-13T04:35:48.711Z,73.96
2017-08-13T04:36:50.597Z,73.71
2017-08-13T04:37:52.485Z,73.32
2017-08-13T04:39:06.652Z,72.78
2017-08-13T04:40:08.542Z,72.20
2017-08-13T04:41:10.432Z,72.20
2017-08-13T04:42:12.325Z,72.01
2017-08-13T04:43:14.149Z,72.39
2017-08-13T04:44:15.985Z,71.81
2017-08-13T04:45:17.874Z,72.30
2017-08-13T04:46:19.760Z,71.91
2017-08-13T04:47:21.645Z,72.59
2017-08-13T04:48:35.873Z,72.30
2017-08-13T04:49:37.759Z,72.49
2017-08-13T04:50:39.646Z,72.97
2017-08-13T04:51:41.548Z,72.94
2017-08-13T04:52:43.374Z,73.32
2017-08-13T04:53:45.201Z,73.61
2017-08-13T04:54:47.088Z,74.29
2017-08-13T04:55:48.986Z,74.29
2017-08-13T04:56:50.885Z,74.25
2017-08-13T04:58:05.081Z,74.92
2017-08-13T04:59:06.944Z,74.73
2017-08-13T05:00:08.833Z,75.21
2017-08-13T05:01:10.718Z,75.21
2017-08-13T05:02:12.558Z,75.49
2017-08-13T05:03:14.385Z,75.59
2017-08-13T05:04:16.275Z,75.40
2017-08-13T05:05:18.161Z,74.67
2017-08-13T05:06:20.051Z,75.21
2017-08-13T05:07:34.224Z,74.76
2017-08-13T05:08:36.107Z,74.48
2017-08-13T05:09:37.997Z,74.29
2017-08-13T05:10:39.889Z,74.38
2017-08-13T05:11:41.717Z,73.36
2017-08-13T05:12:43.542Z,73.55
2017-08-13T05:13:45.443Z,72.59
2017-08-13T05:14:47.293Z,72.39
2017-08-13T05:15:49.146Z,72.72
2017-08-13T05:17:03.313Z,72.24
2017-08-13T05:18:05.200Z,71.95
2017-08-13T05:19:07.097Z,71.76
2017-08-13T05:20:08.981Z,72.05
2017-08-13T05:21:10.815Z,72.68
2017-08-13T05:22:12.641Z,72.88
2017-08-13T05:23:14.530Z,73.22
2017-08-13T05:24:16.427Z,74.76
2017-08-13T05:25:18.328Z,75.21
2017-08-13T05:26:32.499Z,75.94
2017-08-13T05:27:34.383Z,77.09
2017-08-13T05:28:36.284Z,77.96
2017-08-13T05:29:38.173Z,78.25
2017-08-13T05:30:40.012Z,78.34
2017-08-13T05:31:41.851Z,78.25
2017-08-13T05:32:43.743Z,78.34
2017-08-13T05:33:45.624Z,78.34
2017-08-13T05:34:47.516Z,78.44
2017-08-13T05:36:01.685Z,77.67
2017-08-13T05:37:03.574Z,78.06
2017-08-13T05:38:05.464Z,77.09
2017-08-13T05:39:07.352Z,77.58
2017-08-13T05:40:09.189Z,77.58
2017-08-13T05:41:11.017Z,77.67
2017-08-13T05:42:12.908Z,77.67
2017-08-13T05:43:14.793Z,77.38
2017-08-13T05:44:16.685Z,77.19
2017-08-13T05:45:30.852Z,77.38
2017-08-13T05:46:32.751Z,76.84
2017-08-13T05:47:34.643Z,76.52
2017-08-13T05:48:36.535Z,76.32
2017-08-13T05:49:38.364Z,76.90
2017-08-13T05:50:40.191Z,76.52
2017-08-13T05:51:42.098Z,76.23
2017-08-13T05:52:43.981Z,77.00
2017-08-13T05:53:45.870Z,77.09
2017-08-13T05:55:00.040Z,77.38
2017-08-13T05:56:01.926Z,77.19
2017-08-13T05:57:03.826Z,77.00
2017-08-13T05:58:05.716Z,77.48
2017-08-13T05:59:07.545Z,77.29
2017-08-13T06:00:09.373Z,77.29
2017-08-13T06:01:11.263Z,77.29
2017-08-13T06:02:13.150Z,77.29
2017-08-13T06:03:15.043Z,77.38
2017-08-13T06:04:29.210Z,77.00
2017-08-13T06:05:31.098Z,77.09
2017-08-13T06:06:32.987Z,77.19
2017-08-13T06:07:34.877Z,77.09
2017-08-13T06:08:36.709Z,77.09
2017-08-13T06:09:38.538Z,76.65
2017-08-13T06:10:40.432Z,75.98
2017-08-13T06:11:42.317Z,76.56
2017-08-13T06:12:44.208Z,76.07
2017-08-13T06:13:58.375Z,75.88
2017-08-13T06:15:00.264Z,75.21
2017-08-13T06:16:02.155Z,75.24
2017-08-13T06:17:04.045Z,74.09
2017-08-13T06:18:05.872Z,73.71
2017-08-13T06:19:07.702Z,73.99
2017-08-13T06:20:09.590Z,74.29
2017-08-13T06:21:11.479Z,74.19
2017-08-13T06:22:13.370Z,74.29
2017-08-13T06:23:27.543Z,75.02
2017-08-13T06:24:29.434Z,74.76
2017-08-13T06:25:31.324Z,74.29
2017-08-13T06:26:33.214Z,74.29
2017-08-13T06:27:35.041Z,75.02
2017-08-13T06:28:36.871Z,74.92
2017-08-13T06:29:38.761Z,75.49
2017-08-13T06:30:40.651Z,75.59
2017-08-13T06:31:42.540Z,75.59
2017-08-13T06:32:56.713Z,75.15
2017-08-13T06:33:58.593Z,74.96
2017-08-13T06:35:00.493Z,73.61
2017-08-13T06:36:02.383Z,73.99
2017-08-13T06:37:04.221Z,73.71
2017-08-13T06:38:06.046Z,73.61
2017-08-13T06:39:07.938Z,73.99
2017-08-13T06:40:09.836Z,73.03
2017-08-13T06:41:11.723Z,73.16
2017-08-13T06:42:25.892Z,72.88
2017-08-13T06:43:27.779Z,72.49
2017-08-13T06:44:29.669Z,72.68
2017-08-13T06:45:31.572Z,72.05
2017-08-13T06:46:33.400Z,71.85
2017-08-13T06:47:35.240Z,71.47
2017-08-13T06:48:37.133Z,71.28
2017-08-13T06:49:39.021Z,71.28
2017-08-13T06:50:40.911Z,71.41
2017-08-13T06:51:55.081Z,71.22
2017-08-13T06:52:56.970Z,71.41
2017-08-13T06:53:58.862Z,71.70
2017-08-13T06:55:00.751Z,70.64
2017-08-13T06:56:02.579Z,70.25
2017-08-13T06:57:04.407Z,70.06
2017-08-13T06:58:06.295Z,70.83
2017-08-13T06:59:08.193Z,71.02
2017-08-13T07:00:10.081Z,70.44
2017-08-13T07:01:24.249Z,70.89
2017-08-13T07:02:26.137Z,71.34
2017-08-13T07:03:28.030Z,72.01
2017-08-13T07:04:29.921Z,72.68
2017-08-13T07:05:31.750Z,72.30
2017-08-13T07:06:33.588Z,72.59
2017-08-13T07:07:35.498Z,72.78
2017-08-13T07:08:37.380Z,73.01
2017-08-13T07:09:39.276Z,72.43
2017-08-13T07:10:53.446Z,71.85
2017-08-13T07:11:55.334Z,71.85
2017-08-13T07:12:57.225Z,71.95
2017-08-13T07:13:59.113Z,71.70
2017-08-13T07:15:00.943Z,71.50
2017-08-13T07:16:02.777Z,71.22
2017-08-13T07:17:04.664Z,71.60
2017-08-13T07:18:06.563Z,71.06
2017-08-13T07:19:08.458Z,70.67
2017-08-13T07:20:22.624Z,69.07
2017-08-13T07:21:24.514Z,68.97
2017-08-13T07:22:26.411Z,68.49
2017-08-13T07:23:28.303Z,68.23
2017-08-13T07:24:30.138Z,67.46
2017-08-13T07:25:31.967Z,67.65
2017-08-13T07:26:33.860Z,67.75
2017-08-13T07:27:35.750Z,67.17
2017-08-13T07:28:37.647Z,67.17
2017-08-13T07:29:51.866Z,66.72
2017-08-13T07:30:53.757Z,65.85
2017-08-13T07:31:55.687Z,65.59
2017-08-13T07:32:57.573Z,64.92
2017-08-13T07:33:59.407Z,64.63
2017-08-13T07:35:01.237Z,63.95
2017-08-13T07:36:03.148Z,64.05
2017-08-13T07:37:05.034Z,64.14
2017-08-13T07:38:06.926Z,64.14
2017-08-13T07:39:21.096Z,64.14
2017-08-13T07:40:22.982Z,64.05
2017-08-13T07:41:24.894Z,63.76
2017-08-13T07:42:26.766Z,63.76
2017-08-13T07:43:28.596Z,63.92
2017-08-13T07:44:30.425Z,64.50
2017-08-13T07:45:32.315Z,64.59
2017-08-13T07:46:34.214Z,64.86
2017-08-13T07:47:36.105Z,65.62
2017-08-13T07:48:50.276Z,66.88
2017-08-13T07:49:52.165Z,66.94
2017-08-13T07:50:54.058Z,67.81
2017-08-13T07:51:55.949Z,67.81
2017-08-13T07:52:57.777Z,67.43
2017-08-13T07:53:59.621Z,67.52
2017-08-13T07:55:01.522Z,67.62
2017-08-13T07:56:03.411Z,67.17
2017-08-13T07:57:05.313Z,66.69
2017-08-13T07:58:19.499Z,66.69
2017-08-13T07:59:21.393Z,66.59
2017-08-13T08:00:23.298Z,66.40
2017-08-13T08:01:25.179Z,66.20
2017-08-13T08:02:27.010Z,67.17
2017-08-13T08:03:28.846Z,66.49
2017-08-13T08:04:30.741Z,66.20
2017-08-13T08:05:32.637Z,66.14
2017-08-13T08:06:34.533Z,65.95
2017-08-13T08:07:48.705Z,64.92
2017-08-13T08:08:50.597Z,63.95
2017-08-13T08:09:52.503Z,63.11
2017-08-13T08:10:54.399Z,62.56
2017-08-13T08:11:56.231Z,61.98
2017-08-13T08:12:58.064Z,61.69
2017-08-13T08:13:59.899Z,61.89
2017-08-13T08:15:01.735Z,61.33
2017-08-13T08:16:03.565Z,61.15
2017-08-13T08:17:17.739Z,60.66
2017-08-13T08:18:19.630Z,60.17
2017-08-13T08:19:21.528Z,59.50
2017-08-13T08:20:23.425Z,60.17
2017-08-13T08:21:25.259Z,60.08
2017-08-13T08:22:27.087Z,60.37
2017-08-13T08:23:28.983Z,60.37
2017-08-13T08:24:30.876Z,60.72
2017-08-13T08:25:32.774Z,61.21
2017-08-13T08:26:46.942Z,61.50
2017-08-13T08:27:48.833Z,61.30
2017-08-13T08:28:50.727Z,61.24
2017-08-13T08:29:52.628Z,60.66
2017-08-13T08:30:54.462Z,60.27
2017-08-13T08:31:56.310Z,60.37
2017-08-13T08:32:58.212Z,59.79
2017-08-13T08:34:00.106Z,59.98
2017-08-13T08:35:02.001Z,59.11
2017-08-13T08:36:16.175Z,58.95
2017-08-13T08:37:18.066Z,58.37
2017-08-13T08:38:19.979Z,58.27
2017-08-13T08:39:21.864Z,58.75
2017-08-13T08:40:23.697Z,58.65
2017-08-13T08:41:25.534Z,59.33
2017-08-13T08:42:27.429Z,58.85
2017-08-13T08:43:29.316Z,59.23
2017-08-13T08:44:31.214Z,59.43
2017-08-13T08:45:45.395Z,59.05
2017-08-13T08:46:47.287Z,59.14
2017-08-13T08:47:49.188Z,59.23
2017-08-13T08:48:51.080Z,59.27
2017-08-13T08:49:52.909Z,59.14
2017-08-13T08:50:54.739Z,58.37
2017-08-13T08:51:56.640Z,59.43
2017-08-13T08:52:58.555Z,59.53
2017-08-13T08:54:00.468Z,59.50
2017-08-13T08:55:14.752Z,59.50
2017-08-13T08:56:16.651Z,59.14
2017-08-13T08:57:18.552Z,58.63
2017-08-13T08:58:20.457Z,58.24
2017-08-13T08:59:22.386Z,58.14
2017-08-13T09:00:24.210Z,58.24
2017-08-13T09:01:26.099Z,58.34
2017-08-13T09:02:27.999Z,57.40
2017-08-13T09:03:29.893Z,56.85
2017-08-13T09:04:44.064Z,56.26
2017-08-13T09:05:45.973Z,55.71
2017-08-13T09:06:47.858Z,55.52
2017-08-13T09:07:49.751Z,55.64
2017-08-13T09:08:51.612Z,55.74
2017-08-13T09:09:53.447Z,55.47
2017-08-13T09:10:55.340Z,54.63
2017-08-13T09:11:57.237Z,54.14
2017-08-13T09:12:59.134Z,53.66
2017-08-13T09:14:13.405Z,53.20
2017-08-13T09:15:15.275Z,53.10
2017-08-13T09:16:17.174Z,52.52
2017-08-13T09:17:19.071Z,52.30
2017-08-13T09:18:20.908Z,52.30
2017-08-13T09:19:22.750Z,52.88
2017-08-13T09:20:24.673Z,52.69
2017-08-13T09:21:26.567Z,53.05
2017-08-13T09:22:28.463Z,52.66
2017-08-13T09:23:42.636Z,53.22
2017-08-13T09:24:44.542Z,53.51
2017-08-13T09:25:46.435Z,53.70
2017-08-13T09:26:48.336Z,54.26
2017-08-13T09:27:50.166Z,54.94
2017-08-13T09:28:52.000Z,55.13
2017-08-13T09:29:53.900Z,55.58
2017-08-13T09:30:55.806Z,56.16
2017-08-13T09:31:57.692Z,56.62
2017-08-13T09:33:11.896Z,57.20
2017-08-13T09:34:13.782Z,56.92
2017-08-13T09:35:15.678Z,57.59
2017-08-13T09:36:17.573Z,57.40
2017-08-13T09:37:19.405Z,57.14
2017-08-13T09:38:21.237Z,56.94
2017-08-13T09:39:23.143Z,56.49
2017-08-13T09:40:25.041Z,56.20
2017-08-13T09:41:26.972Z,55.54
2017-08-13T09:42:41.150Z,55.35
2017-08-13T09:43:43.071Z,55.08
2017-08-13T09:44:44.966Z,54.70
2017-08-13T09:45:46.909Z,54.24
2017-08-13T09:46:48.786Z,53.75
2017-08-13T09:47:50.640Z,53.20
2017-08-13T09:48:52.512Z,52.33
2017-08-13T09:49:54.416Z,51.75
2017-08-13T09:50:56.327Z,51.35
2017-08-13T09:52:10.871Z,51.93
2017-08-13T09:53:12.797Z,51.72
2017-08-13T09:54:14.693Z,51.75
2017-08-13T09:55:16.599Z,51.65
2017-08-13T09:56:18.436Z,51.55
2017-08-13T09:57:20.351Z,51.91
2017-08-13T09:58:22.250Z,52.08
2017-08-13T09:59:24.151Z,53.02
2017-08-13T10:00:26.401Z,54.45
2017-08-13T10:01:40.975Z,54.88
2017-08-13T10:02:43.177Z,56.14
2017-08-13T10:03:45.058Z,56.70
2017-08-13T10:04:46.964Z,57.95
2017-08-13T10:05:48.798Z,57.66
2017-08-13T10:06:50.627Z,57.79
2017-08-13T10:07:52.530Z,57.59
2017-08-13T10:08:54.428Z,57.79
2017-08-13T10:09:56.331Z,58.27
2017-08-13T10:11:10.508Z,58.82
2017-08-13T10:12:12.398Z,59.59
2017-08-13T10:13:14.293Z,59.40
2017-08-13T10:14:16.189Z,60.75
2017-08-13T10:15:18.028Z,60.66
2017-08-13T10:16:19.855Z,61.11
2017-08-13T10:17:21.747Z,61.50
2017-08-13T10:18:23.644Z,62.05
2017-08-13T10:19:25.571Z,62.34
2017-08-13T10:20:39.745Z,62.24
2017-08-13T10:21:41.634Z,63.66
2017-08-13T10:22:43.534Z,63.76
2017-08-13T10:23:45.431Z,64.14
2017-08-13T10:24:47.264Z,64.14
2017-08-13T10:25:49.092Z,64.53
2017-08-13T10:26:50.989Z,64.92
2017-08-13T10:27:52.882Z,65.56
2017-08-13T10:28:54.779Z,65.75
2017-08-13T10:30:08.948Z,66.33
2017-08-13T10:31:10.834Z,66.24
2017-08-13T10:32:12.730Z,66.14
2017-08-13T10:33:14.623Z,66.14
2017-08-13T10:34:16.455Z,66.43
2017-08-13T10:35:18.284Z,66.72
2017-08-13T10:36:20.179Z,67.20
2017-08-13T10:37:22.069Z,67.40
2017-08-13T10:38:23.966Z,68.07
2017-08-13T10:39:38.163Z,67.49
2017-08-13T10:40:40.095Z,67.49
2017-08-13T10:41:42.017Z,67.40
2017-08-13T10:42:43.951Z,67.24
2017-08-13T10:43:45.823Z,66.75
2017-08-13T10:44:47.688Z,66.85
2017-08-13T10:45:49.614Z,66.69
2017-08-13T10:46:51.527Z,66.01
2017-08-13T10:47:53.418Z,65.53
2017-08-13T10:49:07.592Z,65.08
2017-08-13T10:50:09.480Z,64.27
2017-08-13T10:51:11.372Z,64.47
2017-08-13T10:52:13.283Z,65.05
2017-08-13T10:53:15.093Z,65.24
2017-08-13T10:54:16.922Z,65.53
2017-08-13T10:55:18.825Z,65.82
2017-08-13T10:56:20.732Z,65.82
2017-08-13T10:57:22.610Z,66.01
2017-08-13T10:58:36.779Z,66.01
2017-08-13T10:59:38.668Z,66.01
2017-08-13T11:00:40.558Z,66.66
2017-08-13T11:01:42.449Z,66.75
2017-08-13T11:02:44.277Z,67.49
2017-08-13T11:03:46.117Z,68.62
2017-08-13T11:04:48.014Z,69.29
2017-08-13T11:05:49.900Z,69.97
2017-08-13T11:06:51.810Z,70.54
2017-08-13T11:08:06.014Z,71.09
2017-08-13T11:09:07.900Z,72.63
2017-08-13T11:10:09.791Z,72.73
2017-08-13T11:11:11.682Z,73.41
2017-08-13T11:12:13.509Z,73.31
2017-08-13T11:13:15.340Z,73.50
2017-08-13T11:14:17.231Z,73.54
2017-08-13T11:15:19.126Z,73.50
2017-08-13T11:16:21.019Z,73.54
2017-08-13T11:17:35.195Z,73.15
2017-08-13T11:18:37.086Z,72.96
2017-08-13T11:19:38.978Z,73.19
2017-08-13T11:20:40.874Z,72.61
2017-08-13T11:21:42.708Z,72.61
2017-08-13T11:22:44.542Z,73.13
2017-08-13T11:23:46.435Z,72.64
2017-08-13T11:24:48.328Z,72.55
2017-08-13T11:25:50.223Z,72.16
2017-08-13T11:27:04.389Z,71.62
2017-08-13T11:28:06.279Z,71.23
2017-08-13T11:29:08.175Z,70.90
2017-08-13T11:30:10.057Z,70.42
2017-08-13T11:31:11.901Z,70.62
2017-08-13T11:32:13.730Z,70.62
2017-08-13T11:33:15.622Z,70.52
2017-08-13T11:34:17.513Z,71.14
2017-08-13T11:35:19.408Z,70.84
2017-08-13T11:36:33.570Z,70.36
2017-08-13T11:37:35.425Z,70.17
2017-08-13T11:38:37.323Z,69.98
2017-08-13T11:39:39.215Z,69.82
2017-08-13T11:40:41.079Z,69.49
2017-08-13T11:41:42.906Z,69.33
2017-08-13T11:42:44.743Z,69.14
2017-08-13T11:43:46.642Z,68.66
2017-08-13T11:44:48.528Z,68.95
2017-08-13T11:46:02.733Z,67.88
2017-08-13T11:47:04.622Z,68.01
2017-08-13T11:48:06.518Z,67.72
2017-08-13T11:49:08.411Z,67.27
2017-08-13T11:50:10.245Z,66.92
2017-08-13T11:51:12.077Z,65.66
2017-08-13T11:52:13.971Z,65.11
2017-08-13T11:53:15.861Z,64.43
2017-08-13T11:54:17.766Z,63.30
2017-08-13T11:55:31.937Z,63.01
2017-08-13T11:56:33.832Z,62.46
2017-08-13T11:57:35.727Z,62.36
2017-08-13T11:58:37.626Z,61.39
2017-08-13T11:59:39.459Z,60.74
2017-08-13T12:00:41.303Z,60.55
2017-08-13T12:01:43.387Z,60.16
2017-08-13T12:02:45.296Z,59.61
2017-08-13T12:03:47.212Z,58.64
2017-08-13T12:05:01.390Z,58.64
2017-08-13T12:06:03.325Z,57.69
2017-08-13T12:07:05.215Z,57.60
2017-08-13T12:08:07.112Z,57.43
2017-08-13T12:09:08.983Z,57.33
2017-08-13T12:10:10.831Z,56.56
2017-08-13T12:11:12.764Z,56.26
2017-08-13T12:12:14.671Z,55.88
2017-08-13T12:13:16.910Z,55.58
2017-08-13T12:14:31.130Z,55.61
2017-08-13T12:15:33.027Z,55.22
2017-08-13T12:16:34.922Z,55.32
2017-08-13T12:17:36.822Z,54.44
2017-08-13T12:18:38.669Z,54.25
2017-08-13T12:19:40.521Z,53.18
2017-08-13T12:20:42.432Z,53.06
2017-08-13T12:21:44.703Z,52.98
2017-08-13T12:22:47.067Z,53.08
2017-08-13T12:24:01.725Z,53.93
2017-08-13T12:25:03.672Z,53.64
2017-08-13T12:26:05.569Z,53.74
2017-08-13T12:27:07.477Z,54.13
2017-08-13T12:28:09.633Z,54.25
2017-08-13T12:29:11.497Z,54.71
2017-08-13T12:30:13.423Z,54.74
2017-08-13T12:31:15.324Z,53.86
2017-08-13T12:32:17.259Z,54.15
2017-08-13T12:33:31.439Z,54.32
2017-08-13T12:34:33.342Z,53.93
2017-08-13T12:35:35.232Z,53.81
2017-08-13T12:36:37.128Z,54.20
2017-08-13T12:37:38.965Z,53.10
2017-08-13T12:38:40.796Z,53.10
2017-08-13T12:39:42.729Z,53.95
2017-08-13T12:40:44.645Z,54.14
2017-08-13T12:41:46.536Z,55.08
2017-08-13T12:43:00.706Z,55.47
2017-08-13T12:44:02.598Z,55.64
2017-08-13T12:45:04.491Z,56.03
2017-08-13T12:46:06.383Z,55.74
2017-08-13T12:47:08.260Z,55.67
2017-08-13T12:48:10.093Z,55.50
2017-08-13T12:49:11.957Z,55.41
2017-08-13T12:50:13.840Z,54.94
2017-08-13T12:51:15.727Z,54.20
2017-08-13T12:52:30.306Z,53.69
2017-08-13T12:53:32.229Z,53.69
2017-08-13T12:54:34.128Z,54.36
2017-08-13T12:55:36.021Z,55.41
2017-08-13T12:56:37.856Z,54.92
2017-08-13T12:57:39.687Z,55.11
2017-08-13T12:58:41.586Z,55.21
2017-08-13T12:59:43.476Z,55.02
2017-08-13T13:00:45.374Z,55.41
2017-08-13T13:01:59.546Z,55.02
2017-08-13T13:03:01.444Z,54.63
2017-08-13T13:04:03.342Z,55.28
2017-08-13T13:05:05.247Z,55.06
2017-08-13T13:06:07.099Z,55.83
2017-08-13T13:07:08.926Z,56.64
2017-08-13T13:08:10.818Z,55.87
2017-08-13T13:09:12.718Z,55.87
2017-08-13T13:10:14.616Z,55.77
2017-08-13T13:11:28.812Z,55.57
2017-08-13T13:12:30.701Z,55.96
2017-08-13T13:13:32.598Z,55.79
2017-08-13T13:14:34.528Z,55.50
2017-08-13T13:15:36.345Z,55.43
2017-08-13T13:16:38.187Z,54.39
2017-08-13T13:17:40.081Z,53.81
2017-08-13T13:18:41.992Z,53.91
2017-08-13T13:19:43.883Z,53.71
2017-08-13T13:20:58.056Z,53.71
2017-08-13T13:21:59.951Z,53.69
2017-08-13T13:23:01.865Z,53.78
2017-08-13T13:24:03.744Z,54.92
2017-08-13T13:25:05.586Z,55.60
2017-08-13T13:26:07.431Z,56.25
2017-08-13T13:27:09.339Z,55.57
2017-08-13T13:28:11.237Z,55.50
2017-08-13T13:29:13.131Z,55.21
2017-08-13T13:30:27.318Z,56.37
2017-08-13T13:31:29.210Z,56.37
2017-08-13T13:32:31.106Z,56.76
2017-08-13T13:33:33.004Z,57.42
2017-08-13T13:34:34.855Z,58.06